createdAt,value
2017-11-04T00:04:07.411Z,1005.8
2017-11-04T00:14:22.054Z,1005.7
2017-11-04T00:24:36.733Z,1005.6
2017-11-04T00:34:51.370Z,1005.5
2017-11-04T00:45:05.136Z,1005.4
2017-11-04T00:55:19.841Z,1005.3
2017-11-04T01:05:35.457Z,1005.2
2017-11-04T01:15:49.895Z,1005.1
2017-11-04T01:26:04.289Z,1005.1
2017-11-04T01:36:19.018Z,1005
2017-11-04T01:46:33.864Z,1004.9
2017-11-04T01:56:48.231Z,1004.7
2017-11-04T02:07:03.400Z,1004.6
2017-11-04T02:17:18.326Z,1004.4
2017-11-04T02:27:33.603Z,1004.3
2017-11-04T02:37:48.158Z,1004.1
2017-11-04T02:48:02.161Z,1004.1
2017-11-04T02:58:16.411Z,1004.1
2017-11-04T03:08:31.560Z,1004
2017-11-04T03:18:46.213Z,1004
2017-11-04T03:29:00.476Z,1003.8
2017-11-04T03:39:15.578Z,1003.8
2017-11-04T03:49:30.516Z,1003.7
2017-11-04T03:59:44.756Z,1003.6
2017-11-04T04:09:58.974Z,1003.6
2017-11-04T04:20:14.471Z,1003.5
2017-11-04T04:30:28.443Z,1003.5
2017-11-04T04:40:42.338Z,1003.4
2017-11-04T04:50:56.294Z,1003.3
2017-11-04T05:01:10.255Z,1003.3
2017-11-04T05:11:24.707Z,1003
2017-11-04T05:21:40.136Z,1003
2017-11-04T05:31:55.004Z,1002.9
2017-11-04T05:42:08.811Z,1003
2017-11-04T05:52:22.553Z,1002.7
2017-11-04T06:02:36.274Z,1002.7
2017-11-04T06:12:51.525Z,1002.7
2017-11-04T06:23:06.027Z,1002.6
2017-11-04T06:33:21.419Z,1002.5
2017-11-04T06:43:37.058Z,1002.4
2017-11-04T06:53:52.403Z,1002.4
2017-11-04T07:04:07.140Z,1002.2
2017-11-04T07:14:21.407Z,1002.3
2017-11-04T07:24:36.260Z,1002.4
2017-11-04T07:34:50.676Z,1002.3
2017-11-04T07:45:05.392Z,1002.4
2017-11-04T07:55:20.229Z,1002.2
2017-11-04T08:05:34.476Z,1002.2
2017-11-04T08:15:49.949Z,1002
2017-11-04T08:26:05.351Z,1002.1
2017-11-04T08:36:20.932Z,1002
2017-11-04T08:46:36.513Z,1001.9
2017-11-04T08:56:51.391Z,1001.5
2017-11-04T09:07:06.499Z,1001.5
2017-11-04T09:17:21.650Z,1001.4
2017-11-04T09:27:36.763Z,1001.5
2017-11-04T09:37:51.827Z,1001.4
2017-11-04T09:48:05.986Z,1001.2
2017-11-04T09:58:20.328Z,1001.2
2017-11-04T10:08:34.726Z,1000.9
2017-11-04T10:18:48.768Z,1000.7
2017-11-04T10:29:03.978Z,1000.5
2017-11-04T10:39:18.509Z,1000.2
2017-11-04T10:49:33.454Z,1000.1
2017-11-04T10:59:48.293Z,1000.2
2017-11-04T11:10:03.048Z,1000.2
2017-11-04T11:20:17.155Z,1000.1
2017-11-04T11:30:31.782Z,1000
2017-11-04T11:40:47.105Z,1000.1
2017-11-04T11:51:02.743Z,999.9
2017-11-04T12:01:16.560Z,999.7
2017-11-04T12:11:32.206Z,999.6
2017-11-04T12:21:47.594Z,999.1
2017-11-04T12:32:02.036Z,999
2017-11-04T12:42:17.313Z,999.2
2017-11-04T12:52:31.744Z,998.9
2017-11-04T13:02:45.946Z,998.7
2017-11-04T13:13:00.768Z,998.5
2017-11-04T13:23:16.341Z,998.5
2017-11-04T13:33:30.391Z,998.4
2017-11-04T13:43:45.149Z,998.5
2017-11-04T13:53:59.158Z,998.4
2017-11-04T14:04:13.799Z,998.1
2017-11-04T14:14:27.717Z,997.9
2017-11-04T14:24:41.967Z,997.7
2017-11-04T14:34:57.552Z,997.7
2017-11-04T14:45:11.343Z,997.7
2017-11-04T14:55:26.774Z,997.5
2017-11-04T15:05:42.131Z,997.4
2017-11-04T15:15:57.532Z,997.3
2017-11-04T15:26:11.343Z,997.3
2017-11-04T15:36:26.030Z,997.2
2017-11-04T15:46:41.561Z,997.2
2017-11-04T15:56:57.233Z,997.2
2017-11-04T16:07:10.967Z,997.3
2017-11-04T16:17:25.045Z,997.3
2017-11-04T16:27:40.643Z,997.2
2017-11-04T16:37:55.480Z,997.2
2017-11-04T16:48:10.653Z,997.2
2017-11-04T16:58:24.398Z,997.3
2017-11-04T17:08:39.440Z,997.3
2017-11-04T17:18:53.665Z,997.1
2017-11-04T17:29:09.236Z,997.1
2017-11-04T17:39:23.701Z,997.2
2017-11-04T17:49:38.419Z,997.1
2017-11-04T17:59:53.538Z,997
2017-11-04T18:10:07.411Z,996.9
2017-11-04T18:20:22.167Z,997
2017-11-04T18:30:37.285Z,997
2017-11-04T18:40:51.711Z,996.9
2017-11-04T18:51:05.914Z,997
2017-11-04T19:01:20.939Z,997
2017-11-04T19:11:36.442Z,997
2017-11-04T19:21:51.987Z,997.1
2017-11-04T19:32:07.363Z,997.1
2017-11-04T19:42:22.164Z,997.1
2017-11-04T19:52:37.827Z,997.1
2017-11-04T20:02:52.587Z,997.3
2017-11-04T20:13:07.517Z,997.2
2017-11-04T20:23:23.182Z,997
2017-11-04T20:33:38.637Z,997.1
2017-11-04T20:43:53.352Z,997.1
2017-11-04T20:54:08.851Z,997.1
2017-11-04T21:04:24.234Z,997.1
2017-11-04T21:14:38.600Z,997.2
2017-11-04T21:24:52.734Z,997.2
2017-11-04T21:35:07.775Z,997.2
2017-11-04T21:45:21.520Z,997.3
2017-11-04T21:55:35.738Z,997.2
2017-11-04T22:05:50.067Z,997.4
2017-11-04T22:16:04.622Z,997.3
2017-11-04T22:26:19.022Z,997.3
2017-11-04T22:36:33.698Z,997.3
2017-11-04T22:46:48.214Z,997.4
2017-11-04T22:57:03.051Z,997.4
2017-11-04T23:07:17.194Z,997.6
2017-11-04T23:17:31.780Z,997.5
2017-11-04T23:27:45.786Z,997.6
2017-11-04T23:38:01.483Z,997.6
2017-11-04T23:48:17.139Z,997.4
2017-11-04T23:58:31.785Z,997.3
